createdAt,value
2018-05-06T00:02:09.472Z,46.10
2018-05-06T00:04:35.701Z,46.10
2018-05-06T00:07:01.922Z,46.10
2018-05-06T00:09:28.159Z,46.10
2018-05-06T00:11:55.176Z,46.20
2018-05-06T00:14:21.441Z,46.20
2018-05-06T00:16:47.698Z,46.10
2018-05-06T00:19:13.921Z,46.10
2018-05-06T00:21:40.915Z,46.20
2018-05-06T00:24:07.129Z,46.20
2018-05-06T00:26:33.397Z,46.20
2018-05-06T00:28:59.655Z,46.20
2018-05-06T00:31:25.902Z,46.20
2018-05-06T00:33:52.118Z,46.10
2018-05-06T00:36:18.337Z,46.20
2018-05-06T00:38:44.612Z,46.10
2018-05-06T00:41:10.824Z,46.10
2018-05-06T00:43:37.068Z,46.20
2018-05-06T00:46:03.308Z,46.10
2018-05-06T00:48:29.545Z,46.20
2018-05-06T00:50:55.805Z,46.20
2018-05-06T00:53:22.052Z,46.20
2018-05-06T00:55:48.665Z,46.20
2018-05-06T00:58:15.662Z,46.20
2018-05-06T01:00:41.907Z,46.20
2018-05-06T01:03:08.199Z,46.20
2018-05-06T01:05:34.424Z,46.10
2018-05-06T01:08:01.440Z,46.20
2018-05-06T01:10:27.675Z,46.20
2018-05-06T01:12:53.905Z,46.20
2018-05-06T01:15:20.131Z,46.20
2018-05-06T01:17:46.374Z,46.20
2018-05-06T01:20:12.587Z,46.20
2018-05-06T01:22:38.811Z,46.20
2018-05-06T01:25:05.057Z,46.20
2018-05-06T01:27:31.269Z,46.20
2018-05-06T01:29:57.504Z,46.20
2018-05-06T01:32:23.809Z,46.20
2018-05-06T01:34:50.076Z,46.20
2018-05-06T01:37:16.412Z,46.20
2018-05-06T01:39:42.676Z,46.20
2018-05-06T01:42:08.936Z,46.20
2018-05-06T01:44:35.894Z,46.20
2018-05-06T01:47:02.140Z,46.20
2018-05-06T01:49:28.675Z,46.20
2018-05-06T01:51:54.909Z,46.20
2018-05-06T01:54:21.212Z,46.10
2018-05-06T01:56:47.464Z,46.10
2018-05-06T01:59:13.706Z,46.10
2018-05-06T02:01:39.974Z,46.10
2018-05-06T02:04:06.186Z,46.20
2018-05-06T02:06:32.398Z,46.10
2018-05-06T02:08:59.334Z,46.10
2018-05-06T02:11:25.561Z,46.10
2018-05-06T02:13:51.816Z,46.10
2018-05-06T02:16:18.073Z,46.10
2018-05-06T02:18:44.305Z,46.10
2018-05-06T02:21:10.547Z,46.20
2018-05-06T02:23:36.791Z,46.10
2018-05-06T02:26:03.845Z,46.20
2018-05-06T02:28:30.843Z,46.20
2018-05-06T02:30:57.115Z,46.20
2018-05-06T02:33:23.727Z,46.20
2018-05-06T02:35:49.957Z,46.10
2018-05-06T02:38:16.225Z,46.20
2018-05-06T02:40:42.497Z,46.10
2018-05-06T02:43:08.774Z,46.20
2018-05-06T02:45:35.006Z,46.20
2018-05-06T02:48:01.844Z,46.20
2018-05-06T02:50:28.093Z,46.20
2018-05-06T02:52:54.331Z,46.20
2018-05-06T02:55:20.549Z,46.20
2018-05-06T02:57:46.801Z,46.20
2018-05-06T03:00:13.050Z,46.20
2018-05-06T03:02:39.309Z,46.20
2018-05-06T03:05:06.316Z,46.20
2018-05-06T03:07:32.564Z,46.20
2018-05-06T03:09:59.547Z,46.20
2018-05-06T03:12:25.792Z,46.20
2018-05-06T03:14:52.071Z,46.20
2018-05-06T03:17:18.323Z,46.20
2018-05-06T03:19:44.549Z,46.20
2018-05-06T03:22:10.793Z,46.20
2018-05-06T03:24:37.024Z,46.20
2018-05-06T03:27:03.277Z,46.20
2018-05-06T03:29:29.531Z,46.20
2018-05-06T03:31:55.760Z,46.20
2018-05-06T03:34:22.016Z,46.20
2018-05-06T03:36:48.266Z,46.20
2018-05-06T03:39:14.552Z,46.20
2018-05-06T03:41:40.802Z,46.20
2018-05-06T03:44:07.022Z,46.20
2018-05-06T03:46:33.268Z,46.20
2018-05-06T03:49:00.448Z,46.30
2018-05-06T03:51:26.741Z,46.20
2018-05-06T03:53:52.969Z,46.20
2018-05-06T03:56:19.221Z,46.20
2018-05-06T03:58:45.436Z,46.20
2018-05-06T04:01:11.661Z,46.80
2018-05-06T04:03:37.906Z,46.20
2018-05-06T04:06:04.142Z,46.20
2018-05-06T04:08:30.429Z,46.20
2018-05-06T04:10:56.657Z,46.20
2018-05-06T04:13:22.913Z,46.20
2018-05-06T04:15:49.160Z,46.20
2018-05-06T04:18:15.405Z,46.20
2018-05-06T04:20:41.665Z,46.20
2018-05-06T04:23:07.917Z,46.20
2018-05-06T04:25:34.148Z,46.20
2018-05-06T04:28:01.135Z,46.30
2018-05-06T04:30:27.404Z,46.20
2018-05-06T04:32:53.662Z,46.20
2018-05-06T04:35:19.899Z,46.20
2018-05-06T04:37:46.151Z,46.20
2018-05-06T04:40:12.407Z,46.20
2018-05-06T04:42:38.641Z,46.20
2018-05-06T04:45:04.918Z,46.20
2018-05-06T04:47:31.189Z,46.20
2018-05-06T04:49:58.214Z,46.20
2018-05-06T04:52:24.466Z,46.20
2018-05-06T04:54:50.692Z,46.80
2018-05-06T04:57:16.975Z,46.10
2018-05-06T04:59:43.202Z,46.10
2018-05-06T05:02:09.439Z,46.20
2018-05-06T05:04:35.685Z,46.20
2018-05-06T05:07:01.917Z,46.20
2018-05-06T05:09:28.229Z,46.20
2018-05-06T05:11:55.209Z,46.20
2018-05-06T05:14:21.450Z,46.20
2018-05-06T05:16:47.697Z,46.10
2018-05-06T05:19:13.939Z,46.10
2018-05-06T05:21:40.214Z,46.20
2018-05-06T05:24:06.447Z,46.20
2018-05-06T05:26:32.892Z,46.20
2018-05-06T05:28:59.847Z,46.20
2018-05-06T05:31:26.877Z,46.20
2018-05-06T05:33:53.147Z,46.20
2018-05-06T05:36:19.382Z,46.20
2018-05-06T05:38:45.604Z,46.20
2018-05-06T05:41:11.838Z,46.20
2018-05-06T05:43:38.095Z,46.20
2018-05-06T05:46:04.366Z,46.20
2018-05-06T05:48:30.608Z,46.20
2018-05-06T05:50:56.844Z,46.10
2018-05-06T05:53:23.073Z,46.20
2018-05-06T05:55:49.311Z,46.20
2018-05-06T05:58:15.565Z,46.20
2018-05-06T06:00:41.792Z,46.20
2018-05-06T06:03:08.751Z,46.20
2018-05-06T06:05:34.976Z,46.20
2018-05-06T06:08:01.241Z,46.20
2018-05-06T06:10:27.533Z,46.20
2018-05-06T06:12:53.782Z,46.20
2018-05-06T06:15:20.013Z,46.30
2018-05-06T06:17:46.264Z,46.80
2018-05-06T06:20:12.545Z,46.20
2018-05-06T06:22:38.816Z,46.20
2018-05-06T06:25:05.039Z,46.20
2018-05-06T06:27:31.273Z,46.20
2018-05-06T06:29:57.493Z,46.20
2018-05-06T06:32:23.713Z,46.20
2018-05-06T06:34:49.976Z,46.20
2018-05-06T06:37:16.261Z,46.10
2018-05-06T06:39:42.497Z,46.20
2018-05-06T06:42:08.732Z,46.20
2018-05-06T06:44:34.973Z,46.20
2018-05-06T06:47:01.243Z,46.20
2018-05-06T06:49:27.509Z,46.20
2018-05-06T06:51:54.226Z,46.20
2018-05-06T06:54:20.465Z,46.20
2018-05-06T06:56:46.689Z,46.10
2018-05-06T06:59:12.946Z,46.20
2018-05-06T07:01:39.187Z,46.10
2018-05-06T07:04:05.409Z,46.10
2018-05-06T07:06:31.645Z,46.20
2018-05-06T07:08:57.884Z,46.20
2018-05-06T07:11:24.164Z,46.10
2018-05-06T07:13:50.406Z,46.10
2018-05-06T07:16:16.645Z,46.10
2018-05-06T07:18:42.896Z,46.10
2018-05-06T07:21:09.137Z,46.20
2018-05-06T07:23:35.406Z,46.10
2018-05-06T07:26:02.586Z,46.20
2018-05-06T07:28:28.813Z,46.10
2018-05-06T07:30:55.041Z,46.10
2018-05-06T07:33:22.789Z,46.30
2018-05-06T07:35:49.073Z,46.10
2018-05-06T07:38:15.325Z,46.10
2018-05-06T07:40:42.467Z,46.10
2018-05-06T07:43:08.713Z,46.20
2018-05-06T07:45:34.929Z,46.20
2018-05-06T07:48:01.610Z,46.20
2018-05-06T07:50:27.871Z,46.20
2018-05-06T07:52:54.123Z,46.10
2018-05-06T07:55:20.363Z,46.00
2018-05-06T07:57:46.599Z,46.20
2018-05-06T08:00:13.971Z,46.20
2018-05-06T08:02:40.218Z,46.20
2018-05-06T08:05:06.449Z,46.20
2018-05-06T08:07:32.677Z,46.20
2018-05-06T08:09:59.187Z,46.20
2018-05-06T08:12:25.452Z,46.20
2018-05-06T08:14:51.693Z,46.20
2018-05-06T08:17:17.928Z,46.20
2018-05-06T08:19:44.180Z,46.20
2018-05-06T08:22:10.403Z,46.20
2018-05-06T08:24:36.664Z,46.20
2018-05-06T08:27:02.891Z,46.20
2018-05-06T08:29:29.124Z,46.20
2018-05-06T08:31:55.341Z,46.20
2018-05-06T08:34:21.584Z,46.20
2018-05-06T08:36:47.896Z,46.10
2018-05-06T08:39:14.139Z,46.10
2018-05-06T08:41:40.365Z,46.20
2018-05-06T08:44:06.586Z,46.20
2018-05-06T08:46:32.814Z,46.10
2018-05-06T08:48:59.109Z,46.10
2018-05-06T08:51:25.374Z,46.10
2018-05-06T08:53:51.598Z,46.10
2018-05-06T08:56:17.813Z,46.10
2018-05-06T08:58:44.062Z,46.10
2018-05-06T09:01:10.344Z,46.10
2018-05-06T09:03:36.585Z,46.10
2018-05-06T09:06:02.850Z,46.10
2018-05-06T09:08:29.118Z,46.10
2018-05-06T09:10:55.364Z,46.10
2018-05-06T09:13:21.873Z,46.10
2018-05-06T09:15:48.117Z,46.10
2018-05-06T09:18:14.341Z,46.10
2018-05-06T09:20:40.584Z,46.10
2018-05-06T09:23:06.831Z,46.10
2018-05-06T09:25:33.178Z,46.10
2018-05-06T09:27:59.367Z,46.10
2018-05-06T09:30:26.245Z,46.10
2018-05-06T09:32:52.461Z,46.60
2018-05-06T09:35:18.684Z,46.00
2018-05-06T09:37:45.061Z,46.00
2018-05-06T09:40:11.221Z,45.90
2018-05-06T09:42:37.463Z,46.00
2018-05-06T09:45:03.895Z,46.00
2018-05-06T09:47:30.148Z,45.90
2018-05-06T09:49:56.417Z,45.90
2018-05-06T09:52:22.660Z,45.90
2018-05-06T09:54:48.888Z,45.90
2018-05-06T09:57:15.106Z,45.90
2018-05-06T09:59:41.348Z,45.90
2018-05-06T10:02:07.616Z,45.90
2018-05-06T10:04:34.616Z,45.70
2018-05-06T10:07:00.833Z,45.90
2018-05-06T10:09:27.054Z,45.90
2018-05-06T10:11:53.303Z,45.90
2018-05-06T10:14:19.583Z,45.90
2018-05-06T10:16:45.797Z,45.90
2018-05-06T10:19:12.013Z,45.90
2018-05-06T10:21:38.255Z,45.80
2018-05-06T10:24:04.487Z,45.90
2018-05-06T10:26:30.751Z,45.80
2018-05-06T10:28:56.992Z,45.80
2018-05-06T10:31:23.209Z,45.80
2018-05-06T10:33:49.453Z,45.80
2018-05-06T10:36:16.282Z,45.70
2018-05-06T10:38:42.547Z,45.80
2018-05-06T10:41:08.781Z,45.80
2018-05-06T10:43:35.031Z,45.80
2018-05-06T10:46:01.506Z,45.80
2018-05-06T10:48:27.796Z,45.80
2018-05-06T10:50:54.645Z,45.80
2018-05-06T10:53:20.924Z,45.80
2018-05-06T10:55:47.183Z,45.80
2018-05-06T10:58:13.411Z,45.80
2018-05-06T11:00:39.645Z,45.90
2018-05-06T11:03:05.911Z,45.80
2018-05-06T11:05:32.159Z,45.80
2018-05-06T11:07:58.404Z,45.80
2018-05-06T11:10:25.475Z,45.80
2018-05-06T11:12:51.672Z,45.70
2018-05-06T11:15:17.886Z,45.60
2018-05-06T11:17:44.114Z,45.80
2018-05-06T11:20:10.351Z,45.70
2018-05-06T11:22:36.595Z,45.70
2018-05-06T11:25:02.814Z,45.70
2018-05-06T11:27:29.465Z,45.70
2018-05-06T11:29:55.697Z,45.70
2018-05-06T11:32:21.917Z,45.60
2018-05-06T11:34:48.156Z,45.60
2018-05-06T11:37:14.821Z,45.60
2018-05-06T11:39:41.057Z,45.60
2018-05-06T11:42:07.592Z,45.60
2018-05-06T11:44:33.832Z,45.60
2018-05-06T11:47:00.090Z,45.60
2018-05-06T11:49:26.317Z,45.60
2018-05-06T11:51:52.544Z,45.60
2018-05-06T11:54:18.832Z,45.50
2018-05-06T11:56:45.072Z,45.50
2018-05-06T11:59:12.031Z,45.50
2018-05-06T12:01:38.274Z,45.50
2018-05-06T12:04:04.520Z,45.50
2018-05-06T12:06:30.733Z,45.40
2018-05-06T12:08:57.053Z,45.40
2018-05-06T12:11:23.292Z,45.40
2018-05-06T12:13:49.575Z,45.40
2018-05-06T12:16:15.817Z,45.40
2018-05-06T12:18:42.762Z,45.30
2018-05-06T12:21:09.402Z,45.30
2018-05-06T12:23:36.241Z,45.30
2018-05-06T12:26:02.657Z,45.30
2018-05-06T12:28:29.629Z,45.30
2018-05-06T12:30:55.881Z,45.30
2018-05-06T12:33:22.137Z,45.30
2018-05-06T12:35:48.735Z,45.30
2018-05-06T12:38:14.980Z,45.20
2018-05-06T12:40:41.189Z,45.30
2018-05-06T12:43:07.995Z,45.20
2018-05-06T12:45:34.308Z,45.20
2018-05-06T12:48:00.542Z,45.20
2018-05-06T12:50:26.781Z,45.20
2018-05-06T12:52:53.010Z,45.30
2018-05-06T12:55:19.287Z,45.20
2018-05-06T12:57:45.608Z,45.30
2018-05-06T13:00:11.834Z,45.30
2018-05-06T13:02:38.061Z,45.30
2018-05-06T13:05:04.313Z,46.00
2018-05-06T13:07:30.545Z,45.30
2018-05-06T13:09:56.805Z,45.30
2018-05-06T13:12:23.064Z,45.30
2018-05-06T13:14:49.319Z,45.30
2018-05-06T13:17:15.541Z,45.40
2018-05-06T13:19:41.768Z,45.40
2018-05-06T13:22:08.025Z,45.30
2018-05-06T13:24:34.244Z,45.30
2018-05-06T13:27:00.470Z,45.30
2018-05-06T13:29:27.445Z,45.30
2018-05-06T13:31:53.669Z,45.30
2018-05-06T13:34:19.947Z,45.30
2018-05-06T13:36:46.184Z,45.40
2018-05-06T13:39:12.399Z,45.40
2018-05-06T13:41:38.685Z,45.40
2018-05-06T13:44:04.944Z,45.50
2018-05-06T13:46:31.196Z,45.50
2018-05-06T13:48:57.413Z,45.50
2018-05-06T13:51:23.654Z,45.50
2018-05-06T13:53:50.244Z,45.50
2018-05-06T13:56:16.500Z,45.40
2018-05-06T13:58:42.789Z,45.50
2018-05-06T14:01:09.013Z,45.50
2018-05-06T14:03:35.252Z,45.60
2018-05-06T14:06:01.497Z,45.50
2018-05-06T14:08:27.737Z,45.60
2018-05-06T14:10:54.109Z,45.70
2018-05-06T14:13:20.385Z,45.70
2018-05-06T14:15:46.609Z,45.70
2018-05-06T14:18:12.859Z,45.60
2018-05-06T14:20:39.089Z,45.60
2018-05-06T14:23:05.386Z,45.60
2018-05-06T14:25:31.648Z,45.60
2018-05-06T14:27:57.910Z,45.60
2018-05-06T14:30:24.150Z,45.60
2018-05-06T14:32:50.378Z,45.70
2018-05-06T14:35:16.635Z,45.60
2018-05-06T14:37:42.869Z,45.70
2018-05-06T14:40:09.112Z,45.70
2018-05-06T14:42:36.119Z,46.40
2018-05-06T14:45:02.357Z,45.70
2018-05-06T14:47:28.625Z,45.70
2018-05-06T14:49:54.865Z,45.80
2018-05-06T14:52:21.092Z,45.80
2018-05-06T14:54:47.305Z,45.80
2018-05-06T14:57:13.560Z,45.80
2018-05-06T14:59:40.588Z,45.70
2018-05-06T15:02:06.813Z,45.80
2018-05-06T15:04:33.037Z,45.80
2018-05-06T15:06:59.895Z,45.70
2018-05-06T15:09:26.132Z,45.70
2018-05-06T15:11:52.399Z,45.70
2018-05-06T15:14:18.629Z,45.60
2018-05-06T15:16:44.864Z,45.70
2018-05-06T15:19:11.124Z,46.30
2018-05-06T15:21:37.365Z,45.60
2018-05-06T15:24:03.620Z,45.60
2018-05-06T15:26:29.853Z,45.60
2018-05-06T15:28:56.098Z,45.60
2018-05-06T15:31:22.358Z,45.70
2018-05-06T15:33:48.611Z,45.60
2018-05-06T15:36:15.623Z,45.40
2018-05-06T15:38:41.865Z,45.40
2018-05-06T15:41:08.159Z,45.40
2018-05-06T15:43:34.436Z,45.30
2018-05-06T15:46:00.831Z,45.40
2018-05-06T15:48:27.855Z,45.50
2018-05-06T15:50:54.077Z,45.50
2018-05-06T15:53:20.329Z,45.50
2018-05-06T15:55:46.548Z,45.50
2018-05-06T15:58:12.784Z,45.60
2018-05-06T16:00:39.028Z,45.20
2018-05-06T16:03:05.261Z,45.10
2018-05-06T16:05:31.491Z,45.00
2018-05-06T16:07:57.718Z,45.00
2018-05-06T16:10:23.989Z,44.70
2018-05-06T16:12:51.001Z,44.70
2018-05-06T16:15:17.235Z,44.60
2018-05-06T16:17:43.529Z,44.50
2018-05-06T16:20:09.720Z,44.60
2018-05-06T16:22:36.023Z,44.40
2018-05-06T16:25:02.272Z,44.40
2018-05-06T16:27:28.870Z,44.50
2018-05-06T16:29:55.095Z,44.80
2018-05-06T16:32:21.332Z,44.30
2018-05-06T16:34:48.355Z,44.00
2018-05-06T16:37:14.790Z,43.90
2018-05-06T16:39:41.076Z,44.00
2018-05-06T16:42:07.322Z,44.10
2018-05-06T16:44:33.545Z,43.90
2018-05-06T16:46:59.798Z,44.10
2018-05-06T16:49:26.033Z,44.10
2018-05-06T16:51:52.281Z,43.90
2018-05-06T16:54:18.517Z,44.00
2018-05-06T16:56:45.436Z,44.20
2018-05-06T16:59:11.751Z,44.30
2018-05-06T17:01:38.032Z,44.10
2018-05-06T17:04:04.281Z,43.90
2018-05-06T17:06:30.551Z,44.10
2018-05-06T17:08:57.552Z,44.10
2018-05-06T17:11:23.832Z,44.10
2018-05-06T17:13:50.068Z,44.00
2018-05-06T17:16:16.295Z,44.00
2018-05-06T17:18:42.506Z,44.30
2018-05-06T17:21:08.729Z,44.30
2018-05-06T17:23:35.019Z,44.60
2018-05-06T23:09:40.364Z,46.90
2018-05-06T23:12:07.324Z,47.40
2018-05-06T23:14:33.624Z,47.20
2018-05-06T23:16:59.858Z,46.70
2018-05-06T23:19:26.128Z,46.60
2018-05-06T23:21:52.358Z,46.60
2018-05-06T23:24:18.577Z,47.20
2018-05-06T23:26:45.462Z,46.70
2018-05-06T23:29:11.748Z,46.90
2018-05-06T23:31:37.973Z,47.50
2018-05-06T23:34:04.206Z,46.90
2018-05-06T23:36:31.228Z,47.00
2018-05-06T23:38:58.286Z,47.10
2018-05-06T23:41:24.510Z,47.00
2018-05-06T23:43:50.790Z,47.10
2018-05-06T23:46:17.041Z,47.10
2018-05-06T23:48:43.684Z,47.10
2018-05-06T23:51:09.970Z,47.20
2018-05-06T23:53:36.289Z,47.10
2018-05-06T23:56:02.484Z,47.20
2018-05-06T23:58:28.751Z,47.50
